KPGA/PGA METAR and TAF weather

Enter ICAO airport designator
Station Type Date Time Source
KPGA METAR 2022/01/29 13:53 UTC NOAA

KPGA 291353Z AUTO 00000KT 10SM CLR M04/M16 A3043 RMK AO2 SLP320 T10391156 TSNO $


Station Type Date Time Source
KPGA Decoded METAR 2022/01/29 13:53 UTC NOAA

PAGE MUNICIPAL AIRPORT, AZ, United States (KPGA) 36-56N 111-27W 1307M
Jan 29, 2022 - 08:53 AM EST / 2022.01.29 1353 UTC
Wind: Calm:0
Visibility: 10 mile(s):0
Sky conditions: clear
Temperature: 25.0 F (-3.9 C)
Dew Point: 3.9 F (-15.6 C)
Relative Humidity: 39%
Pressure (altimeter): 30.43 in. Hg (1030 hPa)
ob: KPGA 291353Z AUTO 00000KT 10SM CLR M04/M16 A3043 RMK AO2 SLP320 T10391156 TSNO
cycle: 14

Station Type Date Time Source
KPGA TAF 2022/01/29 12:57 UTC NOAA

TAF KPGA 291155Z 2912/3012 VRB03KT P6SM SKC

Example: see airport list